Time;durP1;ratioP1;P1;durP2;ratioP2;P2;SDS_P1;SDS_P2;PMS_P1;PMS_P2;Temp;Humidity;BMP_temperature;BMP_pressure;BME280_temperature;BME280_humidity;BME280_pressure;Samples;Min_cycle;Max_cycle;Signal;HPM_P1;HPM_P2
2021/10/11 00:01:48;;;;;;;6.67;4.77;;;6.30;99.90;;;;;;5091763;28;20212;-70
2021/10/11 00:04:14;;;;;;;6.40;4.23;;;6.30;99.90;;;;;;5091499;28;20172;-70
2021/10/11 00:06:39;;;;;;;8.13;4.13;;;6.30;99.90;;;;;;5091633;28;20198;-70
2021/10/11 00:09:05;;;;;;;6.50;4.77;;;6.20;99.90;;;;;;5092911;28;20675;-70
2021/10/11 00:11:30;;;;;;;4.50;4.03;;;6.30;99.90;;;;;;5095343;28;20170;-70
2021/10/11 00:13:56;;;;;;;6.57;5.27;;;6.20;99.90;;;;;;5095550;28;20166;-70
2021/10/11 00:16:21;;;;;;;7.60;4.67;;;6.20;99.90;;;;;;5095510;28;20540;-71
2021/10/11 00:18:47;;;;;;;6.23;4.70;;;6.10;99.90;;;;;;5095332;28;20202;-72
2021/10/11 00:21:14;;;;;;;9.20;4.63;;;6.10;99.90;;;;;;5095002;28;20176;-71
2021/10/11 00:23:39;;;;;;;8.03;4.80;;;6.10;99.90;;;;;;5095286;28;20186;-71
2021/10/11 00:26:05;;;;;;;7.53;5.10;;;6.10;99.90;;;;;;5093978;28;20786;-70
2021/10/11 00:28:30;;;;;;;8.83;4.83;;;6.10;99.90;;;;;;5092442;28;20186;-71
2021/10/11 00:30:56;;;;;;;6.37;4.87;;;6.10;99.90;;;;;;5074881;28;20779;-71
2021/10/11 00:33:21;;;;;;;7.77;5.37;;;6.00;99.90;;;;;;5074799;28;20174;-71
2021/10/11 00:35:47;;;;;;;5.90;4.13;;;6.00;99.90;;;;;;5074961;28;20197;-71
2021/10/11 00:38:12;;;;;;;8.23;4.20;;;5.90;99.90;;;;;;5074735;28;20198;-71
2021/10/11 00:40:38;;;;;;;7.50;5.80;;;6.00;99.90;;;;;;5074682;28;20200;-71
2021/10/11 00:43:03;;;;;;;7.80;4.97;;;6.00;99.90;;;;;;5085113;28;20176;-70
2021/10/11 00:45:29;;;;;;;11.70;5.40;;;5.90;99.90;;;;;;5094367;28;20188;-70
2021/10/11 00:47:54;;;;;;;8.60;5.13;;;6.00;99.90;;;;;;5094869;28;20177;-70
2021/10/11 00:50:20;;;;;;;8.90;5.00;;;6.00;99.90;;;;;;5094765;28;20209;-71
2021/10/11 00:52:46;;;;;;;5.77;4.00;;;6.00;99.90;;;;;;5094805;28;20174;-71
2021/10/11 00:55:12;;;;;;;9.93;4.17;;;5.90;99.90;;;;;;5094537;28;20796;-70
2021/10/11 00:57:37;;;;;;;5.03;3.87;;;5.90;99.90;;;;;;5094371;28;20478;-70
2021/10/11 01:00:07;;;;;;;9.50;5.20;;;5.90;99.90;;;;;;5094690;28;20177;-71
2021/10/11 01:02:33;;;;;;;5.70;4.23;;;5.90;99.90;;;;;;5094495;28;20191;-71
2021/10/11 01:04:59;;;;;;;6.63;5.30;;;5.90;99.90;;;;;;5094527;28;20412;-71
2021/10/11 01:07:25;;;;;;;7.03;5.00;;;5.90;99.90;;;;;;5094398;28;20424;-71
2021/10/11 01:09:50;;;;;;;8.40;4.30;;;5.90;99.90;;;;;;5094241;28;20400;-71
2021/10/11 01:12:16;;;;;;;9.97;4.97;;;5.90;99.90;;;;;;5093968;28;20181;-71
2021/10/11 01:14:41;;;;;;;7.03;4.53;;;5.90;99.90;;;;;;5094265;28;20257;-72
2021/10/11 01:17:07;;;;;;;5.53;4.30;;;5.90;99.90;;;;;;5093752;28;20197;-70
2021/10/11 01:19:32;;;;;;;7.43;3.80;;;6.00;99.90;;;;;;5094223;28;20207;-68
2021/10/11 01:21:58;;;;;;;7.10;5.33;;;5.90;99.90;;;;;;5093251;28;20168;-68
2021/10/11 01:24:24;;;;;;;6.93;5.00;;;6.00;99.90;;;;;;5082531;28;20195;-69
2021/10/11 01:26:50;;;;;;;5.43;4.50;;;6.00;99.90;;;;;;5073160;28;20440;-69
2021/10/11 01:29:17;;;;;;;6.57;5.10;;;6.00;99.90;;;;;;5074203;28;20210;-69
2021/10/11 01:31:44;;;;;;;5.87;4.67;;;5.90;99.90;;;;;;5074452;28;20166;-68
2021/10/11 01:34:10;;;;;;;4.67;4.27;;;5.90;99.90;;;;;;5073697;28;20399;-68
2021/10/11 01:36:36;;;;;;;8.00;5.90;;;5.90;99.90;;;;;;5073756;28;20475;-71
2021/10/11 01:39:05;;;;;;;7.50;5.67;;;5.90;99.90;;;;;;5073819;28;20479;-71
2021/10/11 01:41:31;;;;;;;9.87;5.83;;;5.90;99.90;;;;;;5079088;28;20403;-69
2021/10/11 01:43:56;;;;;;;5.30;4.80;;;5.90;99.90;;;;;;5093834;28;20410;-69
2021/10/11 01:46:22;;;;;;;5.73;4.67;;;5.90;99.90;;;;;;5093661;28;20436;-71
2021/10/11 01:48:47;;;;;;;4.63;3.80;;;5.90;99.90;;;;;;5093836;28;20173;-70
2021/10/11 01:51:13;;;;;;;7.00;5.87;;;5.90;99.90;;;;;;5093786;28;20746;-68
2021/10/11 01:53:39;;;;;;;7.90;4.43;;;5.80;99.90;;;;;;5093786;28;20287;-71
2021/10/11 01:56:05;;;;;;;8.67;5.70;;;5.90;99.90;;;;;;5074358;28;20230;-71
2021/10/11 01:58:30;;;;;;;5.27;4.03;;;5.90;99.90;;;;;;5088567;28;20193;-69
2021/10/11 02:00:58;;;;;;;10.73;5.03;;;5.90;99.90;;;;;;5093149;28;20428;-69
2021/10/11 02:03:24;;;;;;;6.47;4.63;;;5.90;99.90;;;;;;5093412;28;20173;-70
2021/10/11 02:05:50;;;;;;;7.83;5.03;;;6.00;99.90;;;;;;5093372;28;20514;-69
2021/10/11 02:08:15;;;;;;;9.10;5.00;;;6.10;99.90;;;;;;5093380;28;20184;-69
2021/10/11 02:10:41;;;;;;;9.40;4.47;;;6.10;99.90;;;;;;5092771;28;20192;-69
2021/10/11 02:13:06;;;;;;;8.73;5.40;;;6.20;99.90;;;;;;5093301;28;20698;-69
2021/10/11 02:15:32;;;;;;;9.23;4.97;;;6.40;99.90;;;;;;5091919;28;20616;-69
2021/10/11 02:17:58;;;;;;;6.10;4.70;;;6.40;99.90;;;;;;5092951;28;20208;-69
2021/10/11 02:20:24;;;;;;;9.70;5.03;;;6.50;99.90;;;;;;5093282;28;20546;-69
2021/10/11 02:22:50;;;;;;;8.03;5.47;;;6.50;99.90;;;;;;5093032;28;20197;-69
2021/10/11 02:25:15;;;;;;;6.07;5.00;;;6.50;99.90;;;;;;5093048;28;20403;-69
2021/10/11 02:27:42;;;;;;;8.97;5.93;;;6.60;99.90;;;;;;5092957;28;20197;-69
2021/10/11 02:30:10;;;;;;;4.97;3.90;;;6.60;99.90;;;;;;5093034;28;20177;-69
2021/10/11 02:32:35;;;;;;;6.00;4.57;;;6.70;99.90;;;;;;5092582;28;20407;-69
2021/10/11 02:35:01;;;;;;;6.20;4.50;;;6.70;99.90;;;;;;5092721;28;20755;-69
2021/10/11 02:37:27;;;;;;;12.60;4.90;;;6.60;99.90;;;;;;5092695;28;20219;-69
2021/10/11 02:39:56;;;;;;;4.87;3.97;;;6.50;99.90;;;;;;5078338;28;20162;-69
2021/10/11 02:42:23;;;;;;;6.03;3.87;;;6.50;99.90;;;;;;5084392;28;20407;-69
2021/10/11 02:44:48;;;;;;;9.63;5.37;;;6.60;99.90;;;;;;5092643;28;20461;-69
2021/10/11 02:47:14;;;;;;;5.53;3.90;;;6.50;99.90;;;;;;5092637;28;20423;-70
2021/10/11 02:49:39;;;;;;;6.47;5.00;;;6.60;99.90;;;;;;5092620;28;20256;-70
2021/10/11 02:52:05;;;;;;;5.40;4.67;;;6.60;99.90;;;;;;5092459;28;20257;-70
2021/10/11 02:54:31;;;;;;;7.80;5.17;;;6.50;99.90;;;;;;5092512;28;20432;-69
2021/10/11 02:56:56;;;;;;;8.13;4.53;;;6.60;99.90;;;;;;5092448;28;20201;-70
2021/10/11 02:59:22;;;;;;;6.27;5.03;;;6.70;99.90;;;;;;5092409;28;20604;-70
2021/10/11 03:01:47;;;;;;;9.40;5.40;;;6.60;99.90;;;;;;5092307;28;20174;-69
2021/10/11 03:04:12;;;;;;;8.27;4.73;;;6.60;99.90;;;;;;5091090;28;20663;-68
2021/10/11 03:06:38;;;;;;;4.40;4.00;;;6.60;99.90;;;;;;5092282;28;20189;-69
2021/10/11 03:09:04;;;;;;;11.70;5.67;;;6.60;99.90;;;;;;5092285;28;20215;-69
2021/10/11 03:11:29;;;;;;;6.80;4.50;;;6.60;99.90;;;;;;5092346;28;20178;-70
2021/10/11 03:13:55;;;;;;;11.60;4.50;;;6.70;99.90;;;;;;5092143;28;20173;-70
2021/10/11 03:16:21;;;;;;;5.80;5.20;;;6.70;99.90;;;;;;5092281;28;20197;-70
2021/10/11 03:18:47;;;;;;;8.80;4.93;;;6.70;99.90;;;;;;5092142;28;20240;-69
2021/10/11 03:21:17;;;;;;;6.27;4.63;;;6.70;99.90;;;;;;5092025;28;20169;-69
2021/10/11 03:23:43;;;;;;;6.50;4.43;;;6.70;99.90;;;;;;5091236;28;20856;-69
2021/10/11 03:26:08;;;;;;;5.07;4.60;;;6.70;99.90;;;;;;5092036;28;20456;-70
2021/10/11 03:28:34;;;;;;;5.47;4.10;;;6.70;99.90;;;;;;5092045;28;20172;-69
2021/10/11 03:30:59;;;;;;;7.20;4.40;;;6.80;99.90;;;;;;5091895;28;20177;-69
2021/10/11 03:33:25;;;;;;;9.57;4.07;;;6.80;99.90;;;;;;5091167;28;20569;-69
2021/10/11 03:35:51;;;;;;;5.73;3.83;;;6.80;99.90;;;;;;5091961;28;20208;-69
2021/10/11 03:38:16;;;;;;;9.10;5.60;;;6.80;99.90;;;;;;5092102;28;20439;-69
2021/10/11 03:40:41;;;;;;;6.60;4.70;;;6.80;99.90;;;;;;5092020;28;20272;-69
2021/10/11 03:43:07;;;;;;;6.00;4.10;;;6.90;99.90;;;;;;5091635;28;20227;-70
2021/10/11 03:45:32;;;;;;;10.73;6.00;;;6.80;99.90;;;;;;5091937;28;20165;-69
2021/10/11 03:47:58;;;;;;;5.23;4.70;;;6.80;99.90;;;;;;5090752;28;20171;-69
2021/10/11 03:50:23;;;;;;;5.77;4.50;;;6.90;99.90;;;;;;5092155;28;20173;-70
2021/10/11 03:52:49;;;;;;;5.50;4.67;;;6.90;99.90;;;;;;5091902;28;20747;-69
2021/10/11 03:55:14;;;;;;;5.60;3.83;;;6.80;99.90;;;;;;5091740;28;20218;-69
2021/10/11 03:57:40;;;;;;;7.80;4.53;;;6.90;99.90;;;;;;5091680;28;20276;-69
2021/10/11 04:00:06;;;;;;;5.83;4.33;;;6.90;99.90;;;;;;5091699;28;20164;-69
2021/10/11 04:02:31;;;;;;;5.43;4.37;;;6.90;99.90;;;;;;5091885;28;20162;-69
2021/10/11 04:04:57;;;;;;;7.63;4.50;;;6.90;99.90;;;;;;5091687;28;20452;-70
2021/10/11 04:07:22;;;;;;;6.80;4.87;;;6.90;99.90;;;;;;5091791;28;20656;-70
2021/10/11 04:09:48;;;;;;;6.50;4.63;;;6.90;99.90;;;;;;5091724;28;20204;-71
2021/10/11 04:12:21;;;;;;;6.60;4.07;;;6.90;99.90;;;;;;5091752;28;20701;-70
2021/10/11 04:14:48;;;;;;;3.87;3.50;;;7.00;99.90;;;;;;5092090;28;20407;-69
2021/10/11 04:17:14;;;;;;;7.97;5.63;;;6.90;99.90;;;;;;5091572;28;20462;-70
2021/10/11 04:19:40;;;;;;;6.17;4.67;;;6.90;99.90;;;;;;5091372;28;20459;-70
2021/10/11 04:22:05;;;;;;;7.47;3.90;;;7.00;99.90;;;;;;5091547;28;20414;-69
2021/10/11 04:24:31;;;;;;;4.63;3.90;;;7.00;99.90;;;;;;5091318;28;20652;-70
2021/10/11 04:26:56;;;;;;;4.93;4.10;;;7.00;99.90;;;;;;5091378;28;20595;-70
2021/10/11 04:29:22;;;;;;;7.70;5.17;;;6.90;99.90;;;;;;5091413;28;20188;-70
2021/10/11 04:31:47;;;;;;;7.60;4.50;;;6.90;99.90;;;;;;5091408;28;20174;-69
2021/10/11 04:34:13;;;;;;;7.90;5.33;;;6.90;99.90;;;;;;5091265;28;20574;-70
2021/10/11 04:36:39;;;;;;;8.30;4.60;;;7.00;99.90;;;;;;5091343;28;20190;-70
2021/10/11 04:39:05;;;;;;;5.90;3.60;;;6.90;99.90;;;;;;5091267;28;20189;-69
2021/10/11 04:41:30;;;;;;;8.97;5.00;;;7.00;99.90;;;;;;5091214;28;20405;-70
2021/10/11 04:43:56;;;;;;;7.27;4.10;;;7.00;99.90;;;;;;5090780;28;20641;-70
2021/10/11 04:46:22;;;;;;;7.97;4.70;;;7.00;99.90;;;;;;5090934;28;20284;-70
2021/10/11 04:48:47;;;;;;;7.80;4.47;;;7.00;99.90;;;;;;5090762;28;20177;-71
2021/10/11 04:51:13;;;;;;;7.20;4.70;;;6.90;99.90;;;;;;5090780;28;20262;-70
2021/10/11 04:53:38;;;;;;;9.20;4.60;;;7.00;99.90;;;;;;5090735;28;20231;-69
2021/10/11 04:56:04;;;;;;;8.97;5.27;;;6.90;99.90;;;;;;5091840;28;20197;-70
2021/10/11 04:58:29;;;;;;;6.03;4.10;;;6.90;99.90;;;;;;5094278;28;20201;-69
2021/10/11 05:00:55;;;;;;;5.07;4.63;;;6.90;99.90;;;;;;5094163;28;20165;-69
2021/10/11 05:03:20;;;;;;;7.40;4.30;;;6.90;99.90;;;;;;5094270;28;20542;-70
2021/10/11 05:05:45;;;;;;;7.40;5.10;;;6.90;99.90;;;;;;5094111;28;20193;-70
2021/10/11 05:08:11;;;;;;;9.07;5.33;;;6.90;99.90;;;;;;5094057;28;20174;-69
2021/10/11 05:10:36;;;;;;;6.20;5.23;;;6.80;99.90;;;;;;5094250;28;20189;-70
2021/10/11 05:13:02;;;;;;;10.73;5.33;;;6.90;99.90;;;;;;5094066;28;20177;-70
2021/10/11 05:15:27;;;;;;;5.33;4.80;;;6.90;99.90;;;;;;5092661;28;20538;-69
2021/10/11 05:17:53;;;;;;;7.20;4.37;;;6.90;99.90;;;;;;5093632;28;20262;-70
2021/10/11 05:20:18;;;;;;;5.23;4.17;;;6.90;99.90;;;;;;5094140;28;20695;-70
2021/10/11 05:22:44;;;;;;;6.27;4.50;;;6.90;99.90;;;;;;5093831;28;20532;-70
2021/10/11 05:25:10;;;;;;;7.03;5.23;;;6.90;99.90;;;;;;5093606;28;20162;-70
2021/10/11 05:27:36;;;;;;;5.43;4.60;;;7.00;99.90;;;;;;5093674;28;20189;-70
2021/10/11 05:30:03;;;;;;;5.73;3.90;;;7.00;99.90;;;;;;5093833;28;20252;-70
2021/10/11 05:32:29;;;;;;;7.00;4.90;;;7.00;99.90;;;;;;5093528;28;20490;-70
2021/10/11 05:34:58;;;;;;;5.67;4.37;;;7.00;99.90;;;;;;5093629;28;20399;-70
2021/10/11 05:37:24;;;;;;;9.30;4.87;;;7.00;99.90;;;;;;5093399;28;20452;-70
2021/10/11 05:39:49;;;;;;;6.73;4.77;;;7.00;99.90;;;;;;5093319;28;20455;-70
2021/10/11 05:42:14;;;;;;;12.93;4.73;;;7.00;99.90;;;;;;5093808;28;20912;-70
2021/10/11 05:44:40;;;;;;;6.57;4.97;;;7.10;99.90;;;;;;5092283;28;20751;-70
2021/10/11 05:47:06;;;;;;;8.30;4.80;;;7.10;99.90;;;;;;5093385;28;20750;-70
2021/10/11 05:49:31;;;;;;;10.87;5.60;;;7.10;99.90;;;;;;5093521;28;20177;-70
2021/10/11 05:51:56;;;;;;;6.40;4.27;;;7.10;99.90;;;;;;5093302;28;20186;-70
2021/10/11 05:54:22;;;;;;;7.00;4.93;;;7.10;99.90;;;;;;5093112;28;20170;-69
2021/10/11 05:56:47;;;;;;;7.70;5.07;;;7.10;99.90;;;;;;5093201;28;20203;-70
2021/10/11 05:59:13;;;;;;;5.90;4.53;;;7.20;99.90;;;;;;5093249;28;20672;-70
2021/10/11 06:01:38;;;;;;;9.00;5.30;;;7.10;99.90;;;;;;5093285;28;20223;-69
2021/10/11 06:04:04;;;;;;;6.03;4.57;;;7.20;99.90;;;;;;5093029;28;20477;-70
2021/10/11 06:06:29;;;;;;;8.67;5.70;;;7.20;99.90;;;;;;5092647;28;20223;-70
2021/10/11 06:08:55;;;;;;;9.83;4.90;;;7.20;99.90;;;;;;5087404;28;20657;-70
2021/10/11 06:11:21;;;;;;;8.27;5.10;;;7.20;99.90;;;;;;5094562;28;20174;-70
2021/10/11 06:13:47;;;;;;;12.23;5.13;;;7.30;99.90;;;;;;5093326;28;20588;-70
2021/10/11 06:16:13;;;;;;;8.90;5.30;;;7.30;99.90;;;;;;5096023;28;20194;-70
2021/10/11 06:18:39;;;;;;;8.60;3.90;;;7.40;99.90;;;;;;5080394;28;20506;-70
2021/10/11 06:21:05;;;;;;;6.60;5.40;;;7.40;99.90;;;;;;5075643;28;20421;-70
2021/10/11 06:23:31;;;;;;;7.53;5.53;;;7.40;99.90;;;;;;5075841;28;20409;-71
2021/10/11 06:25:56;;;;;;;9.17;4.87;;;7.50;99.90;;;;;;5085267;28;20511;-70
2021/10/11 06:28:23;;;;;;;10.40;5.97;;;7.50;99.90;;;;;;5096098;28;20597;-71
2021/10/11 06:30:48;;;;;;;13.70;7.37;;;7.50;99.90;;;;;;5095339;28;20253;-70
2021/10/11 06:33:15;;;;;;;9.33;6.20;;;7.50;99.90;;;;;;5094195;28;20431;-70
2021/10/11 06:35:41;;;;;;;13.50;7.83;;;7.50;99.90;;;;;;5093313;28;20181;-70
2021/10/11 06:38:07;;;;;;;10.33;6.80;;;7.60;99.90;;;;;;5092572;28;20523;-71
2021/10/11 06:40:32;;;;;;;9.30;5.73;;;7.70;99.90;;;;;;5092762;28;20212;-71
2021/10/11 06:42:58;;;;;;;14.30;6.80;;;7.70;99.90;;;;;;5094574;28;20208;-72
2021/10/11 06:45:24;;;;;;;15.50;6.50;;;7.80;99.90;;;;;;5092496;28;20195;-71
2021/10/11 06:47:49;;;;;;;8.00;6.97;;;7.90;99.90;;;;;;5091279;28;20201;-71
2021/10/11 06:50:15;;;;;;;10.17;5.60;;;8.00;99.90;;;;;;5092639;28;20167;-72
2021/10/11 06:52:40;;;;;;;13.00;6.47;;;8.10;99.90;;;;;;5091973;28;20549;-72
2021/10/11 06:55:06;;;;;;;8.67;6.37;;;8.10;99.90;;;;;;5092380;28;20170;-74
2021/10/11 06:57:32;;;;;;;9.07;6.00;;;8.10;99.90;;;;;;5092590;28;20196;-72
2021/10/11 06:59:57;;;;;;;10.67;6.90;;;8.20;99.90;;;;;;5092974;28;20400;-73
2021/10/11 07:02:23;;;;;;;11.30;6.70;;;8.30;99.90;;;;;;5076996;28;20334;-69
2021/10/11 07:04:56;;;;;;;14.70;9.27;;;8.30;99.90;;;;;;5072036;28;20629;-69
2021/10/11 07:07:23;;;;;;;12.60;8.27;;;8.30;99.90;;;;;;5073122;28;20249;-70
2021/10/11 07:09:48;;;;;;;15.30;8.43;;;8.30;99.90;;;;;;5093776;28;20898;-69
2021/10/11 07:12:14;;;;;;;12.87;8.50;;;8.40;99.90;;;;;;5095633;28;20409;-70
2021/10/11 07:14:40;;;;;;;9.10;7.20;;;8.40;99.90;;;;;;5093930;28;20209;-70
2021/10/11 07:17:05;;;;;;;9.93;6.50;;;8.40;99.90;;;;;;5095501;28;20192;-70
2021/10/11 07:19:31;;;;;;;8.37;6.63;;;8.40;99.90;;;;;;5089241;28;20197;-70
2021/10/11 07:21:56;;;;;;;15.70;8.80;;;8.50;99.90;;;;;;5094597;28;20175;-70
2021/10/11 07:24:22;;;;;;;8.63;6.00;;;8.50;99.90;;;;;;5095185;28;20162;-70
2021/10/11 07:26:48;;;;;;;7.73;6.10;;;8.60;99.90;;;;;;5092038;28;20188;-70
2021/10/11 07:29:13;;;;;;;13.70;7.90;;;8.80;99.90;;;;;;5075758;28;20169;-70
2021/10/11 07:31:39;;;;;;;10.60;7.37;;;8.70;99.90;;;;;;5075343;28;20180;-70
2021/10/11 07:34:05;;;;;;;15.40;6.80;;;8.80;99.90;;;;;;5074918;28;20253;-70
2021/10/11 07:36:31;;;;;;;10.47;7.20;;;8.90;99.90;;;;;;5088672;28;20246;-70
2021/10/11 07:38:57;;;;;;;9.37;6.57;;;8.80;99.90;;;;;;5095590;28;20195;-70
2021/10/11 07:41:23;;;;;;;8.80;7.40;;;8.80;99.90;;;;;;5094675;28;20439;-70
2021/10/11 07:43:49;;;;;;;13.77;8.33;;;8.70;99.90;;;;;;5095341;28;20409;-70
2021/10/11 07:46:15;;;;;;;9.23;6.80;;;8.80;99.90;;;;;;5095419;28;20589;-70
2021/10/11 07:48:40;;;;;;;13.33;8.00;;;8.80;99.90;;;;;;5095223;28;20195;-70
2021/10/11 07:51:06;;;;;;;18.33;10.07;;;8.90;99.90;;;;;;5095874;28;20483;-70
2021/10/11 07:53:32;;;;;;;13.87;9.67;;;8.80;99.90;;;;;;5095110;28;20201;-70
2021/10/11 07:55:58;;;;;;;13.17;9.73;;;8.90;99.90;;;;;;5095057;28;20439;-70
2021/10/11 07:58:24;;;;;;;12.70;8.40;;;8.90;99.90;;;;;;5078332;28;20202;-70
2021/10/11 08:00:50;;;;;;;14.80;8.10;;;8.90;99.90;;;;;;5075159;28;20163;-71
2021/10/11 08:03:17;;;;;;;13.10;8.00;;;9.10;99.90;;;;;;5074560;28;20413;-70
2021/10/11 08:05:43;;;;;;;11.90;8.03;;;9.20;99.90;;;;;;5074087;28;20683;-72
2021/10/11 08:08:09;;;;;;;16.70;8.67;;;9.10;99.90;;;;;;5074922;28;20404;-71
2021/10/11 08:10:36;;;;;;;13.07;8.50;;;9.20;99.90;;;;;;5088129;28;20439;-71
2021/10/11 08:13:02;;;;;;;12.20;6.83;;;9.30;99.90;;;;;;5095364;28;20411;-70
2021/10/11 08:15:28;;;;;;;14.60;8.03;;;9.20;99.90;;;;;;5094530;28;20412;-70
2021/10/11 08:17:53;;;;;;;13.13;8.87;;;9.20;99.90;;;;;;5096812;28;20576;-70
2021/10/11 08:20:19;;;;;;;10.57;7.20;;;9.10;99.90;;;;;;5094565;28;20637;-70
2021/10/11 08:22:45;;;;;;;12.77;7.53;;;9.20;99.90;;;;;;5095378;28;20330;-70
2021/10/11 08:25:11;;;;;;;12.53;7.87;;;9.20;99.90;;;;;;5095760;28;20408;-72
2021/10/11 08:27:37;;;;;;;15.13;7.80;;;9.30;99.90;;;;;;5094969;28;20424;-70
2021/10/11 08:30:05;;;;;;;15.50;8.30;;;9.40;99.90;;;;;;5097038;28;20181;-70
2021/10/11 08:32:32;;;;;;;12.43;7.77;;;9.40;99.90;;;;;;5098202;28;20162;-70
2021/10/11 08:34:59;;;;;;;11.17;8.03;;;9.50;99.90;;;;;;5098223;28;20403;-71
2021/10/11 08:37:25;;;;;;;11.93;7.40;;;9.40;99.90;;;;;;5097025;28;20945;-70
2021/10/11 08:39:51;;;;;;;14.57;9.73;;;9.20;99.90;;;;;;5097601;28;20455;-70
2021/10/11 08:42:20;;;;;;;19.37;10.37;;;9.20;99.90;;;;;;5097883;28;20548;-70
2021/10/11 08:44:45;;;;;;;15.23;9.43;;;9.50;99.90;;;;;;5098513;28;20523;-70
2021/10/11 08:47:12;;;;;;;17.43;10.33;;;9.60;99.90;;;;;;5097893;28;20548;-70
2021/10/11 08:49:49;;;;;;;14.80;6.97;;;9.60;99.90;;;;;;5098635;28;20173;-70
2021/10/11 08:52:15;;;;;;;16.07;7.57;;;9.40;99.90;;;;;;5098721;28;20427;-70
2021/10/11 08:54:42;;;;;;;11.83;6.63;;;9.40;99.90;;;;;;5097645;28;20502;-70
2021/10/11 08:57:22;;;;;;;11.80;8.03;;;9.70;99.90;;;;;;5098077;28;20467;-71
2021/10/11 08:59:49;;;;;;;19.03;6.70;;;9.70;99.90;;;;;;5098625;28;20519;-70
2021/10/11 09:02:16;;;;;;;11.73;6.90;;;9.90;99.90;;;;;;5098388;28;20457;-71
2021/10/11 09:04:51;;;;;;;11.60;6.97;;;9.80;99.90;;;;;;5098266;28;20472;-70
2021/10/11 09:07:22;;;;;;;7.50;5.97;;;9.70;99.90;;;;;;5098713;28;20946;-71
2021/10/11 09:09:48;;;;;;;9.13;7.10;;;9.70;99.90;;;;;;5097902;28;20419;-70
2021/10/11 09:12:23;;;;;;;13.47;8.33;;;10.00;99.90;;;;;;5095458;28;20427;-70
2021/10/11 09:15:04;;;;;;;9.40;7.50;;;10.10;99.90;;;;;;5097410;28;20430;-71
2021/10/11 09:17:34;;;;;;;8.77;7.00;;;10.20;99.90;;;;;;5098166;28;20435;-70
2021/10/11 09:20:25;;;;;;;8.07;6.63;;;10.10;99.90;;;;;;5098157;28;20427;-69
2021/10/11 09:22:53;;;;;;;12.67;7.20;;;10.40;99.90;;;;;;5098348;28;20412;-70
2021/10/11 09:25:20;;;;;;;12.50;8.67;;;11.00;99.90;;;;;;5097963;28;20395;-70
2021/10/11 09:27:53;;;;;;;9.53;6.80;;;11.40;99.90;;;;;;5084797;28;20424;-70
2021/10/11 09:30:24;;;;;;;14.67;8.17;;;11.70;99.90;;;;;;5078105;28;20436;-70
2021/10/11 09:32:50;;;;;;;10.33;6.77;;;11.30;99.90;;;;;;5077606;28;20401;-70
2021/10/11 09:35:20;;;;;;;13.73;7.53;;;11.30;99.90;;;;;;5076797;28;20899;-70
2021/10/11 09:37:51;;;;;;;11.43;6.90;;;11.10;99.90;;;;;;5077656;28;20187;-70
2021/10/11 09:40:18;;;;;;;10.60;7.30;;;11.60;99.90;;;;;;5077164;28;20458;-69
2021/10/11 09:42:44;;;;;;;10.87;7.27;;;11.60;99.90;;;;;;5088603;28;20404;-69
2021/10/11 09:45:13;;;;;;;8.00;6.03;;;11.60;99.90;;;;;;5096669;28;20400;-70
2021/10/11 09:47:44;;;;;;;12.63;7.87;;;11.30;99.90;;;;;;5096797;28;20479;-69
2021/10/11 09:50:12;;;;;;;11.63;6.43;;;11.50;99.90;;;;;;5096858;28;20462;-70
2021/10/11 09:52:39;;;;;;;11.37;6.83;;;12.10;99.90;;;;;;5096531;28;20396;-70
2021/10/11 09:55:06;;;;;;;13.07;7.83;;;12.50;99.90;;;;;;5095605;28;20486;-69
2021/10/11 09:57:33;;;;;;;18.63;7.77;;;12.60;99.90;;;;;;5096239;28;20447;-69
2021/10/11 10:00:07;;;;;;;11.87;8.37;;;12.40;99.90;;;;;;5096461;28;21050;-69
2021/10/11 10:02:37;;;;;;;10.00;7.80;;;12.10;99.90;;;;;;5096468;28;20462;-69
2021/10/11 10:05:08;;;;;;;9.73;6.43;;;11.80;99.90;;;;;;5096628;28;20396;-69
2021/10/11 10:07:35;;;;;;;10.67;7.00;;;11.70;99.90;;;;;;5096181;28;20419;-69
2021/10/11 10:10:05;;;;;;;11.13;7.00;;;11.60;99.90;;;;;;5096670;28;20473;-69
2021/10/11 10:12:42;;;;;;;12.27;7.40;;;11.60;99.90;;;;;;5096077;28;20889;-69
2021/10/11 10:15:08;;;;;;;9.60;6.00;;;11.60;99.90;;;;;;5096312;28;20490;-69
2021/10/11 10:17:34;;;;;;;8.27;6.67;;;11.70;99.90;;;;;;5096351;28;20450;-70
2021/10/11 10:20:11;;;;;;;9.90;7.70;;;11.80;99.90;;;;;;5095624;28;20455;-71
2021/10/11 10:22:50;;;;;;;10.90;6.27;;;12.10;99.90;;;;;;5096272;28;20835;-71
2021/10/11 10:25:15;;;;;;;12.57;5.70;;;12.50;99.90;;;;;;5096261;28;20493;-70
2021/10/11 10:27:41;;;;;;;10.90;6.27;;;12.50;99.90;;;;;;5082758;28;20421;-70
2021/10/11 10:30:14;;;;;;;10.83;7.10;;;12.30;99.90;;;;;;5075670;28;20161;-70
2021/10/11 10:33:14;;;;;;;11.60;7.27;;;12.50;99.90;;;;;;5091417;28;20172;-70
2021/10/11 10:35:45;;;;;;;16.03;6.43;;;12.70;99.90;;;;;;5075176;28;20405;-71
2021/10/11 10:38:21;;;;;;;8.97;6.93;;;12.50;99.90;;;;;;5075918;28;20815;-71
2021/10/11 10:40:49;;;;;;;11.47;6.77;;;12.60;99.90;;;;;;5075760;28;20864;-70
2021/10/11 10:43:18;;;;;;;8.80;5.67;;;12.70;99.90;;;;;;5074966;28;20953;-70
2021/10/11 10:45:45;;;;;;;11.60;6.07;;;12.90;99.90;;;;;;5074889;28;20412;-71
2021/10/11 10:48:21;;;;;;;10.33;5.43;;;12.70;99.90;;;;;;5075570;28;20487;-70
2021/10/11 10:50:48;;;;;;;8.63;5.00;;;12.90;99.90;;;;;;5074914;28;20487;-70
2021/10/11 10:53:13;;;;;;;10.17;5.00;;;13.20;99.90;;;;;;5074011;28;21021;-70
2021/10/11 10:55:41;;;;;;;4.97;4.20;;;13.20;99.90;;;;;;5073743;28;20927;-70
2021/10/11 10:58:10;;;;;;;8.43;6.73;;;13.10;99.90;;;;;;5075820;28;20190;-69
2021/10/11 11:00:38;;;;;;;8.90;6.10;;;13.10;99.90;;;;;;5072205;28;20436;-69
2021/10/11 11:03:03;;;;;;;8.90;5.40;;;13.30;99.90;;;;;;5075617;28;20465;-69
2021/10/11 11:05:30;;;;;;;7.13;5.70;;;13.30;99.90;;;;;;5075203;28;21067;-70
2021/10/11 11:07:56;;;;;;;5.67;4.43;;;13.30;99.90;;;;;;5075741;28;20166;-69
2021/10/11 11:10:30;;;;;;;5.17;3.93;;;13.40;99.90;;;;;;5087883;28;20426;-70
2021/10/11 11:13:00;;;;;;;6.60;4.43;;;13.50;99.90;;;;;;5095958;28;20422;-69
2021/10/11 11:15:29;;;;;;;6.93;4.70;;;13.50;99.90;;;;;;5096208;28;20863;-70
2021/10/11 11:18:01;;;;;;;7.97;3.87;;;13.70;99.90;;;;;;5095494;28;20419;-70
2021/10/11 11:20:30;;;;;;;6.93;4.70;;;13.90;99.90;;;;;;5095751;28;20544;-70
2021/10/11 11:23:01;;;;;;;5.50;3.40;;;14.10;99.90;;;;;;5095563;28;20442;-70
2021/10/11 11:25:35;;;;;;;3.90;3.30;;;14.10;99.90;;;;;;5095259;28;20429;-69
2021/10/11 11:28:04;;;;;;;3.80;3.40;;;14.20;99.90;;;;;;5080310;28;20999;-70
2021/10/11 11:30:31;;;;;;;4.50;3.47;;;14.30;99.90;;;;;;5074365;28;20444;-69
2021/10/11 11:33:01;;;;;;;7.87;3.47;;;14.40;99.90;;;;;;5094399;28;20415;-68
2021/10/11 11:35:30;;;;;;;4.90;3.63;;;14.40;99.90;;;;;;5095407;28;20435;-69
2021/10/11 11:38:00;;;;;;;8.53;4.50;;;14.40;99.90;;;;;;5094189;28;20470;-69
2021/10/11 11:40:32;;;;;;;7.60;4.20;;;14.70;99.90;;;;;;5095838;28;20456;-71
2021/10/11 11:42:58;;;;;;;6.47;5.30;;;14.90;99.90;;;;;;5095508;28;20397;-69
2021/10/11 11:45:40;;;;;;;6.17;4.07;;;14.80;99.90;;;;;;5095344;28;20405;-70
2021/10/11 11:48:16;;;;;;;6.27;4.20;;;14.60;99.90;;;;;;5095650;28;20404;-69
2021/10/11 11:50:43;;;;;;;6.20;3.23;;;14.80;99.90;;;;;;5095959;28;20888;-69
2021/10/11 11:53:11;;;;;;;4.70;3.13;;;14.60;99.90;;;;;;5095137;28;20862;-69
2021/10/11 11:55:37;;;;;;;7.33;3.30;;;14.80;99.90;;;;;;5093644;28;20397;-70
2021/10/11 11:58:06;;;;;;;6.60;3.40;;;14.90;99.90;;;;;;5093502;28;20536;-69
2021/10/11 12:00:32;;;;;;;5.47;3.93;;;15.10;99.90;;;;;;5094249;28;20442;-70
2021/10/11 12:03:00;;;;;;;8.23;5.53;;;14.90;99.90;;;;;;5095233;28;20410;-71
2021/10/11 12:05:26;;;;;;;8.90;4.40;;;15.30;99.90;;;;;;5094986;28;20871;-73
2021/10/11 12:07:54;;;;;;;5.57;3.60;;;15.00;99.90;;;;;;5082513;28;20502;-71
2021/10/11 12:10:23;;;;;;;8.90;4.80;;;14.60;99.90;;;;;;5090540;28;20419;-71
2021/10/11 12:13:00;;;;;;;4.10;3.00;;;14.60;99.90;;;;;;5099577;28;20897;-68
2021/10/11 12:15:27;;;;;;;4.47;3.00;;;14.40;99.90;;;;;;5099785;28;20954;-70
2021/10/11 12:18:22;;;;;;;7.13;2.70;;;14.50;99.90;;;;;;5097985;28;20423;-69
2021/10/11 12:20:50;;;;;;;3.33;2.30;;;14.30;99.90;;;;;;5074066;28;20543;-69
2021/10/11 12:23:17;;;;;;;2.80;2.27;;;13.90;99.90;;;;;;5079043;28;20500;-70
2021/10/11 12:25:44;;;;;;;5.20;2.37;;;14.00;99.90;;;;;;5077891;28;20779;-69
2021/10/11 12:28:19;;;;;;;3.03;1.90;;;13.90;99.90;;;;;;5095890;28;20412;-69
2021/10/11 12:30:48;;;;;;;2.40;2.03;;;13.80;99.90;;;;;;5099165;28;20407;-69
2021/10/11 12:33:18;;;;;;;2.23;1.93;;;13.70;99.90;;;;;;5097953;28;20445;-69
2021/10/11 12:35:46;;;;;;;6.93;2.53;;;13.60;99.90;;;;;;5099032;28;20444;-69
2021/10/11 12:38:15;;;;;;;2.70;2.17;;;13.50;99.90;;;;;;5098712;28;20455;-70
2021/10/11 12:40:42;;;;;;;3.20;2.57;;;13.60;99.90;;;;;;5098836;28;20403;-70
2021/10/11 12:43:12;;;;;;;2.90;2.20;;;13.80;99.90;;;;;;5098848;28;20507;-71
2021/10/11 12:45:38;;;;;;;4.77;2.63;;;13.90;99.90;;;;;;5098599;28;20411;-71
2021/10/11 12:48:04;;;;;;;5.20;2.60;;;13.70;99.90;;;;;;5098849;28;20412;-71
2021/10/11 12:50:30;;;;;;;4.07;3.00;;;13.70;99.90;;;;;;5098426;28;20176;-71